Terminal Aerodrome Forecast
Issued by NWS Goodland, KS

Home | Current Version | Previous Version | Text Only | Print | Product List | Glossary On
Versions: 1 2 3 4 5 6 7 8 9 10 11 12 13 14 15
635
FTUS43 KGLD 212328
TAFGLD
TAF
KGLD 212328Z 2200/2224 VRB04KT P6SM FEW250
     FM220300 21010KT P6SM FEW250
     FM220800 25011KT P6SM FEW250
     FM221400 29009KT P6SM FEW250
     FM221600 32010KT P6SM FEW250
     FM221800 35011KT P6SM FEW250
     FM222100 06008KT P6SM FEW200=

USA.gov is the U.S. government's official web portal to all federal, state and local government web resources and services.